Uppsala, Sweden

11:10 AM CET on December 12, 2018 (GMT +0100)
Bjorklinge | | Change Station

Elev 121 ft 60.03 °N, 17.53 °E | Updated 30 minutes ago

Molnigt
Molnigt
39.6 °F
Feels Like 35 °F
N
6
Vind Växlande Vind from Sydlig
Gusts 6.0 miles/tim

Idag
High -- | Low -- °F
--% Chance of Precip.
Yesterday
High -- | Low -- °F
Precip. -- tum
Lufttryck 30.45 tum
Sikt 3.7 miles
Molnigt Molnigt 700 ft
Vindavkylning 35 °F
Daggpunkt 38 °F
Luftfuktighet 96%
Rainfall 0.00 tum
Snow Depth Not available.
8:43 AM 2:42 PM
Första kvarteret, 23% visible
METAR ESCM 120950Z 34008KT 6000 -SHSN OVC007 M01/M01 Q1031
Lufttryck 30.45 tum
Sikt 3.7 miles
Molnigt Molnigt 700 ft
Vindavkylning 35 °F
Daggpunkt 38 °F
Luftfuktighet 96%
Rainfall 0.00 tum
Snow Depth Not available.
8:43 AM 2:42 PM
Första kvarteret, 23% visible
METAR ESCM 120950Z 34008KT 6000 -SHSN OVC007 M01/M01 Q1031

Get Severe Weather Alerts

Thanks for signing up!

Be on the lookout for a verification email in your inbox.

You'll start receiving the daily forecast at 6 AM.

×

10-Day Weather Forecast

×

Almanac

Astronomi

Dec. 12, 2018 Rise Set
Actual Time
Civil Twilight
Nautical Twilight
Astronomical Twilight
Månen
Length Of Visible Light
Dagens längd
Tomorrow will be .
, % of the Moon is Illuminated

Today's Extremes

Country Highs Country Lows

Community

WunderPhotos

Category 6

Welcome to Category 6. This is the collective home for Weather Underground's featured writeups by Dr. Jeff Masters (right), Bob Henson (left), Chris Burt, and other regular contributors.

Nearby

Air Quality

  Air Quality AQ Index Pollutant
Not available.

Snödjup

Station Depth Elevation

Earthquake Activity

Stad Distance Mag. Time & Date
Minimum magnitude displayed is 2.5.

Coastal Water Temperatures

Plats Temperatur

Stations

Nearby Weather Stations

Station Location Temp Vindavkylning Daggpunkt Luftfuktighet Vind Precip. Elev Uppdaterad Type